createdAt,value
2022-11-25T00:04:18.628Z,2.6
2022-11-25T00:09:18.618Z,2.9
2022-11-25T00:14:18.638Z,3.3
2022-11-25T00:19:18.622Z,3.3
2022-11-25T00:24:18.624Z,3.2
2022-11-25T00:29:18.630Z,3.3
2022-11-25T00:34:18.688Z,3.5
2022-11-25T00:39:18.654Z,3
2022-11-25T00:44:18.636Z,3.8
2022-11-25T00:49:18.648Z,3.8
2022-11-25T00:54:18.660Z,3.4
2022-11-25T00:59:18.644Z,3.9
2022-11-25T01:04:18.639Z,3.7
2022-11-25T01:09:18.662Z,3.8
2022-11-25T01:14:18.674Z,2.7
2022-11-25T01:19:18.633Z,2.7
2022-11-25T01:24:18.656Z,3.3
2022-11-25T01:29:18.640Z,3
2022-11-25T01:34:18.651Z,3.5
2022-11-25T01:39:18.650Z,2.7
2022-11-25T01:44:18.641Z,3
2022-11-25T01:49:18.664Z,3
2022-11-25T01:54:18.648Z,2.6
2022-11-25T01:59:18.652Z,2.6
2022-11-25T02:04:18.674Z,2.8
2022-11-25T02:09:18.643Z,2.6
2022-11-25T02:14:18.682Z,3.2
2022-11-25T02:19:18.663Z,3.2
2022-11-25T02:24:18.649Z,2.5
2022-11-25T02:29:18.676Z,2.2
2022-11-25T02:34:18.658Z,2.4
2022-11-25T02:39:18.657Z,2.3
2022-11-25T02:44:18.684Z,2.9
2022-11-25T02:49:18.691Z,2.9
2022-11-25T02:54:18.641Z,3.2
2022-11-25T02:59:18.752Z,3.4
2022-11-25T03:04:18.665Z,3.3
2022-11-25T03:09:18.665Z,2.4
2022-11-25T03:14:18.671Z,2.2
2022-11-25T03:19:18.665Z,2.2
2022-11-25T03:24:18.706Z,2
2022-11-25T03:29:18.656Z,1.3
2022-11-25T03:34:18.673Z,1.5
2022-11-25T03:39:18.692Z,1.6
2022-11-25T03:44:18.670Z,1.6
2022-11-25T03:49:18.691Z,1.3
2022-11-25T03:54:18.684Z,1.4
2022-11-25T03:59:18.684Z,1.3
2022-11-25T04:04:18.675Z,1.4
2022-11-25T04:09:18.687Z,1.2
2022-11-25T04:14:18.647Z,1.2
2022-11-25T04:19:18.691Z,1.4
2022-11-25T04:24:18.673Z,1.5
2022-11-25T04:29:18.699Z,1.1
2022-11-25T04:34:18.690Z,1.2
2022-11-25T04:39:18.716Z,1.6
2022-11-25T04:44:18.668Z,1.6
2022-11-25T04:49:18.710Z,1
2022-11-25T04:54:18.690Z,1.1
2022-11-25T04:59:18.683Z,1.3
2022-11-25T05:04:18.703Z,1
2022-11-25T05:09:18.693Z,0.9
2022-11-25T05:14:18.701Z,0.9
2022-11-25T05:19:18.691Z,1.1
2022-11-25T05:24:18.704Z,1.1
2022-11-25T05:29:18.709Z,1.2
2022-11-25T05:34:18.687Z,1
2022-11-25T05:39:18.709Z,0.9
2022-11-25T05:44:22.708Z,0.9
2022-11-25T05:49:18.712Z,1
2022-11-25T05:54:18.700Z,1
2022-11-25T05:59:18.710Z,0.8
2022-11-25T06:04:18.723Z,1.3
2022-11-25T06:09:18.703Z,1.3
2022-11-25T06:14:18.712Z,1.3
2022-11-25T06:19:18.714Z,1.1
2022-11-25T06:24:18.697Z,1.1
2022-11-25T06:29:18.698Z,1.3
2022-11-25T06:34:18.714Z,1.2
2022-11-25T06:39:18.714Z,1.8
2022-11-25T06:44:18.727Z,1.8
2022-11-25T06:49:18.714Z,1.4
2022-11-25T06:54:18.746Z,1.6
2022-11-25T06:59:18.711Z,1.8
2022-11-25T07:04:18.727Z,1.9
2022-11-25T07:09:18.725Z,1.8
2022-11-25T07:14:18.740Z,1.8
2022-11-25T07:19:18.711Z,1.8
2022-11-25T07:24:18.728Z,1.7
2022-11-25T07:29:44.288Z,2
2022-11-25T07:34:18.711Z,1.5
2022-11-25T07:39:18.743Z,1.1
2022-11-25T07:44:18.728Z,1.1
2022-11-25T07:49:18.734Z,1.6
2022-11-25T07:54:18.740Z,1.2
2022-11-25T07:59:18.737Z,1.5
2022-11-25T08:04:20.857Z,1.7
2022-11-25T08:09:18.739Z,1.5
2022-11-25T08:14:18.741Z,1.5
2022-11-25T08:19:18.730Z,3.4
2022-11-25T08:24:18.746Z,2.7
2022-11-25T08:29:18.743Z,3.4
2022-11-25T08:34:18.753Z,2.2
2022-11-25T08:39:44.414Z,1.8
2022-11-25T08:44:18.740Z,1.8
2022-11-25T08:49:18.736Z,1.7
2022-11-25T08:54:18.743Z,2
2022-11-25T08:59:18.754Z,2.2
2022-11-25T09:04:18.757Z,2
2022-11-25T09:09:18.740Z,2.9
2022-11-25T09:14:18.794Z,2.9
2022-11-25T09:19:18.738Z,2.5
2022-11-25T09:24:18.761Z,2.2
2022-11-25T09:29:18.744Z,2.4
2022-11-25T09:34:18.745Z,2.5
2022-11-25T09:39:18.757Z,2.1
2022-11-25T09:44:18.729Z,2.1
2022-11-25T09:49:18.762Z,2
2022-11-25T09:54:18.753Z,1.8
2022-11-25T09:59:18.713Z,1.9
2022-11-25T10:04:18.757Z,1.6
2022-11-25T10:09:18.754Z,2.6
2022-11-25T10:14:18.756Z,2.6
2022-11-25T10:19:18.750Z,1.4
2022-11-25T10:24:18.790Z,1.6
2022-11-25T10:29:18.756Z,1.9
2022-11-25T10:34:18.750Z,3.2
2022-11-25T10:39:18.773Z,2
2022-11-25T10:44:18.768Z,2
2022-11-25T10:49:18.771Z,2.1
2022-11-25T10:54:25.622Z,2.1
2022-11-25T10:59:18.763Z,2.4
2022-11-25T11:04:18.784Z,2.3
2022-11-25T11:09:18.788Z,2.3
2022-11-25T11:14:18.785Z,2.3
2022-11-25T11:19:18.815Z,2
2022-11-25T11:24:18.771Z,2.2
2022-11-25T11:29:18.773Z,2
2022-11-25T11:34:18.765Z,2.3
2022-11-25T11:39:18.771Z,2
2022-11-25T11:44:18.775Z,2
2022-11-25T11:49:18.775Z,1.7
2022-11-25T11:54:18.787Z,2.3
2022-11-25T11:59:18.797Z,2.2
2022-11-25T12:04:18.778Z,2.2
2022-11-25T12:09:18.786Z,2.6
2022-11-25T12:14:18.787Z,2.6
2022-11-25T12:19:18.795Z,2.5
2022-11-25T12:24:18.763Z,2.2
2022-11-25T12:29:18.787Z,2.5
2022-11-25T12:34:18.780Z,2.5
2022-11-25T12:39:18.790Z,1.8
2022-11-25T12:44:18.789Z,1.8
2022-11-25T12:49:18.790Z,1.9
2022-11-25T12:54:18.790Z,2.4
2022-11-25T12:59:18.801Z,2.2
2022-11-25T13:04:18.808Z,2.5
2022-11-25T13:09:18.776Z,2
2022-11-25T13:14:19.242Z,2
2022-11-25T13:19:18.801Z,3.3
2022-11-25T13:24:18.811Z,2.1
2022-11-25T13:29:18.804Z,2.2
2022-11-25T13:34:18.808Z,2.9
2022-11-25T13:39:18.807Z,2.1
2022-11-25T13:44:18.814Z,2.1
2022-11-25T13:49:18.792Z,2.4
2022-11-25T13:54:18.817Z,2.3
2022-11-25T13:59:18.816Z,2.4
2022-11-25T14:04:18.805Z,3.2
2022-11-25T14:09:18.809Z,3.3
2022-11-25T14:14:18.814Z,3.3
2022-11-25T14:19:50.647Z,2.2
2022-11-25T14:24:18.821Z,2.2
2022-11-25T14:29:18.805Z,2.1
2022-11-25T14:34:18.811Z,2.1
2022-11-25T14:39:18.822Z,2
2022-11-25T14:44:18.924Z,2
2022-11-25T14:49:44.858Z,3.5
2022-11-25T14:54:18.817Z,1.9
2022-11-25T14:59:18.808Z,2.5
2022-11-25T15:04:18.836Z,2.4
2022-11-25T15:09:18.814Z,2.3
2022-11-25T15:14:18.831Z,2.3
2022-11-25T15:19:18.820Z,2.5
2022-11-25T15:24:18.831Z,2.5
2022-11-25T15:29:18.826Z,3.2
2022-11-25T15:34:18.840Z,3.3
2022-11-25T15:39:18.829Z,4.3
2022-11-25T15:44:18.828Z,4.3
2022-11-25T15:49:18.824Z,4.5
2022-11-25T15:54:18.830Z,4.2
2022-11-25T15:59:18.832Z,3.3
2022-11-25T16:04:18.821Z,4.3
2022-11-25T16:09:18.829Z,3.7
2022-11-25T16:14:18.834Z,3.7
2022-11-25T16:19:18.826Z,3.7
2022-11-25T16:24:18.816Z,2.6
2022-11-25T16:29:18.868Z,3.1
2022-11-25T16:34:18.832Z,3.6
2022-11-25T16:39:18.842Z,3.8
2022-11-25T16:44:18.853Z,3.8
2022-11-25T16:49:18.836Z,4.4
2022-11-25T16:54:18.850Z,4
2022-11-25T16:59:18.845Z,3.8
2022-11-25T17:04:18.855Z,3.4
2022-11-25T17:09:18.841Z,18
2022-11-25T17:14:19.002Z,18
2022-11-25T17:19:18.967Z,6
2022-11-25T17:24:18.867Z,3.6
2022-11-25T17:29:18.843Z,3.4
2022-11-25T17:34:18.857Z,3.7
2022-11-25T17:39:18.905Z,3.5
2022-11-25T17:44:18.861Z,3.5
2022-11-25T17:49:18.853Z,4
2022-11-25T17:54:18.866Z,3.4
2022-11-25T17:59:18.847Z,4.1
2022-11-25T18:04:18.871Z,4.1
2022-11-25T18:09:18.856Z,5.9
2022-11-25T18:14:18.856Z,5.9
2022-11-25T18:19:18.854Z,4.8
2022-11-25T18:24:18.926Z,4.1
2022-11-25T18:29:18.862Z,4.3
2022-11-25T18:34:18.878Z,4.8
2022-11-25T18:39:18.868Z,3.9
2022-11-25T18:44:24.428Z,3.9
2022-11-25T18:49:18.883Z,3.5
2022-11-25T18:54:18.872Z,4.4
2022-11-25T18:59:18.854Z,5
2022-11-25T19:04:18.884Z,4.1
2022-11-25T19:09:18.851Z,4.4
2022-11-25T19:14:18.878Z,4.4
2022-11-25T19:19:18.877Z,5.3
2022-11-25T19:24:18.891Z,5.5
2022-11-25T19:29:18.884Z,5
2022-11-25T19:34:18.885Z,4.5
2022-11-25T19:39:18.881Z,6
2022-11-25T19:44:18.888Z,6
2022-11-25T19:49:18.871Z,4.8
2022-11-25T19:54:18.887Z,5.2
2022-11-25T19:59:18.870Z,5.6
2022-11-25T20:04:18.904Z,6.9
2022-11-25T20:09:18.889Z,4.8
2022-11-25T20:14:18.886Z,4.8
2022-11-25T20:19:18.862Z,5.4
2022-11-25T20:24:18.907Z,5.2
2022-11-25T20:29:18.885Z,5.8
2022-11-25T20:34:19.327Z,5.4
2022-11-25T20:39:18.893Z,4.4
2022-11-25T20:44:18.903Z,4.4
2022-11-25T20:49:18.960Z,5.1
2022-11-25T20:54:18.900Z,4.6
2022-11-25T20:59:18.890Z,4.8
2022-11-25T21:04:18.912Z,4.5
2022-11-25T21:09:18.880Z,4.7
2022-11-25T21:14:18.926Z,4.7
2022-11-25T21:19:18.970Z,4.8
2022-11-25T21:24:18.910Z,4.4
2022-11-25T21:29:18.897Z,5.3
2022-11-25T21:34:18.925Z,4.7
2022-11-25T21:39:18.919Z,4.1
2022-11-25T21:44:18.908Z,4.1
2022-11-25T21:49:18.901Z,3.3
2022-11-25T21:54:18.915Z,6.9
2022-11-25T21:59:18.898Z,5
2022-11-25T22:04:18.894Z,5.3
2022-11-25T22:09:18.895Z,5.2
2022-11-25T22:14:18.908Z,5.2
2022-11-25T22:19:18.925Z,3.6
2022-11-25T22:24:18.921Z,3.8
2022-11-25T22:29:18.905Z,3.7
2022-11-25T22:34:18.946Z,5.5
2022-11-25T22:39:18.909Z,6.3
2022-11-25T22:44:18.906Z,6.3
2022-11-25T22:49:18.911Z,5.5
2022-11-25T22:54:18.907Z,5.2
2022-11-25T22:59:18.911Z,4.6
2022-11-25T23:04:18.923Z,3.1
2022-11-25T23:09:18.906Z,4
2022-11-25T23:14:18.915Z,4
2022-11-25T23:19:18.903Z,4
2022-11-25T23:24:18.922Z,4.2
2022-11-25T23:29:18.926Z,4.2
2022-11-25T23:34:18.921Z,3.8
2022-11-25T23:39:18.890Z,4.4
2022-11-25T23:44:18.917Z,4.4
2022-11-25T23:49:18.924Z,3.8
2022-11-25T23:54:18.893Z,3.4
2022-11-25T23:59:18.913Z,3.9
